Vernal Regional Airport
KVEL : rendu visible

Aérodrome :











RETROUVEZ-NOUS SUR...

 
LOGIN :

S'inscrire | Disclaimer

   EN    FR    IT 

 









Légende :    VFR   VFR Marginal   IFR   IFR Intensif   IFR Très Intensif
Visi : 
Plafond : 
>= 8 km
>= 3000ft
5 à 8 km
1000 à 3000 ft
1500m à 5 km
500 à 1000 ft
800 à 1500m
200 à 500 ft
< 800m
< 200 ft
Symboles :   Orages  Brouillard  Fortes neiges  Fortes précipitations  Vent > 20 kt






- Altitude de l'aérodrome : 5278 ft


KVEL - Vernal Regional

DERNIER METAR :
  • 111953Z AUTO 12013G19KT 10SM CLR 09/M08 A3037 RMK AO2 SLP283 T00891083

METARs EXPIRÉS :
  • 111853Z AUTO 10008G19KT 10SM CLR 09/M08 A3037 RMK AO2 SLP289 T00891078
  • 111753Z AUTO 10009G20KT 10SM CLR 08/M07 A3038 RMK AO2 SLP290 T00831072 10083 20028 51020

TAF KVEL
Valide du 11 à 18h jusqu'au 12 à 18h UTC


111725Z 1118/1218 07011G19KT P6SM SKC
FM120100 34006KT P6SM SKC
FM120600 29004KT P6SM FEW250



MET'MAP, la Météo Aéronautique d'un coup d'oeil ! - Copyright ORBIFLY Décembre 2007 - Disclaimer

ORBIFLY MET'MAP TEAM :

Programmation & Développement : Alexandra Zaïnal
Conception & Développement : Baudouin d'Aumeries
Co-Programmation & Développement : Marc-Olivier Méhu
Soutien technique & logistique : Manuel Goepfert

Contact : metmap@orbifly.com




SOURCES & CREDITS :

   NOAA       Earth
Advisory